Flight Track Log - Related Links

Times and Time Zones

All times are in EDT time to prevent confusion due to time zone crossing. See the N6521Y flight status page for this flight to view local times or setup timezone preferences in your user account.

Time Position Orientation Groundspeed Altitude Reporting Facility
EDT Latitude Longitude Course Direction KTS MPH feet Rate Location/Type
Thu 07:21:58 PM 47.7258 -117.5933 333° Northwest 111 128 6,300  Level Seattle Center
Thu 07:22:59 PM 47.7508 -117.6156 329° Northwest 106 122 6,900 639 Climbing Seattle Center
Thu 07:24:00 PM 47.8109 -117.6754 332° Northwest  Level FlightAware Approximate
Thu 07:24:00 PM 47.7781 -117.6392 330° Northwest 112 129 7,600  Level Seattle Center
Thu 07:25:00 PM 47.8427 -117.7008 332° Northwest  Level FlightAware Approximate
Thu 07:25:01 PM 47.8044 -117.6628 329° Northwest 111 128 8,400  Level Seattle Center
Thu 07:26:00 PM 47.8745 -117.7262 332° Northwest  Level FlightAware Approximate
Thu 07:26:02 PM 47.8297 -117.6864 328° Northwest 109 125 9,000  Level Seattle Center
Thu 07:27:00 PM 47.9066 -117.7507 333° Northwest  Level FlightAware Approximate
Thu 07:27:04 PM 47.8556 -117.7075 331° Northwest 106 122 9,500  Level Seattle Center
Thu 07:28:05 PM 47.8875 -117.7378 328° Northwest 112 129 10,200 639 Climbing Seattle Center
Thu 07:29:06 PM 47.9125 -117.7592 330° Northwest 107 123 10,800 492 Climbing Seattle Center
Thu 07:30:07 PM 47.9381 -117.7750 337° Northwest 100 115 11,200 492 Climbing Seattle Center
Thu 07:31:08 PM 47.9667 -117.7808 352° North 105 121 11,800 393 Climbing Seattle Center
Thu 07:32:09 PM 47.9872 -117.7425 51° Northeast 118 136 12,000 148 Climbing Seattle Center
Thu 07:33:10 PM 48.0089 -117.6936 56° Northeast 137 158 12,100  Climbing Seattle Center
Thu 07:34:11 PM 48.0314 -117.6403 58° Northeast 150 173 12,000  Descending Seattle Center
Thu 07:35:12 PM 48.0619 -117.5967 44° Northeast 151 174 12,100 49 Climbing Seattle Center
Thu 07:36:13 PM 48.0931 -117.5497 45° Northeast 158 182 12,100 -49 Level Seattle Center
Thu 07:37:14 PM 48.1297 -117.5158 32° Northeast 156 180 12,000 -49 Descending Seattle Center
Thu 07:38:15 PM 48.1647 -117.4794 35° Northeast 153 176 12,000 49 Level Seattle Center
Thu 07:39:16 PM 48.1981 -117.4422 37° Northeast 151 174 12,100  Climbing Seattle Center
Thu 07:40:17 PM 48.2406 -117.3994 34° Northeast 155 178 12,000  Descending Seattle Center
Thu 07:41:18 PM 48.2781 -117.3589 36° Northeast 164 189 12,100 49 Climbing Seattle Center
Thu 07:42:19 PM 48.3156 -117.3211 34° Northeast 163 188 12,100 -49 Level Seattle Center
Thu 07:43:21 PM 48.3531 -117.2825 34° Northeast 163 188 12,000 -49 Descending Seattle Center
Thu 07:44:22 PM 48.3878 -117.2397 39° Northeast 162 186 12,000 49 Level Seattle Center
Thu 07:45:23 PM 48.4214 -117.1975 40° Northeast 161 185 12,100 49 Climbing Seattle Center
Thu 07:46:24 PM 48.4550 -117.1589 37° Northeast 157 181 12,100 -49 Level Seattle Center
Thu 07:47:25 PM 48.4906 -117.1192 37° Northeast 157 181 12,000 49 Descending Seattle Center
Thu 07:48:26 PM 48.5258 -117.0786 37° Northeast 160 184 12,200  Climbing Seattle Center
Thu 07:49:27 PM 48.5617 -117.0344 39° Northeast 164 189 12,000 -98 Descending Seattle Center
Thu 07:50:28 PM 48.5978 -116.9931 37° Northeast 163 188 12,000  Level Seattle Center
Thu 07:51:29 PM 48.6339 -116.9500 38° Northeast 166 191 12,000 49 Level Seattle Center
Thu 07:52:30 PM 48.6764 -116.9014 37° Northeast 161 185 12,100 49 Climbing Seattle Center
Thu 07:53:31 PM 48.7111 -116.8614 37° Northeast 159 183 12,100 -49 Level Seattle Center
Thu 07:54:32 PM 48.7469 -116.8181 39° Northeast 162 186 12,000  Descending Seattle Center
Thu 07:55:33 PM 48.7828 -116.7775 37° Northeast 162 186 12,100 49 Climbing Seattle Center
Thu 07:56:34 PM 48.8175 -116.7350 39° Northeast 161 185 12,100 -49 Level Seattle Center
Thu 07:57:35 PM 48.8528 -116.6939 37° Northeast 161 185 12,000 -49 Descending Seattle Center
Thu 07:58:36 PM 48.8931 -116.6450 39° Northeast 166 191 12,000  Level Seattle Center
Thu 07:59:38 PM 48.9294 -116.6019 38° Northeast 167 192 12,000 66 Level Seattle Center
Thu 08:00:07 PM 48.9167 -116.5500 111° Southeast 170 196 12,100  Climbing Vancouver Center
Thu 08:01:07 PM 48.9667 -116.5667 348° North 160 184 12,000 -50 Descending Vancouver Center
Thu 08:02:07 PM 49.0000 -116.6167 315° West 150 173 12,000 50 Level Vancouver Center
Thu 08:03:07 PM 49.0167 -116.5667 63° Northeast 150 173 12,100  Climbing Vancouver Center
Thu 08:03:42 PM 49.0639 -116.6250 321° Northwest 166 191 12,000 -100 Descending Seattle Center
Thu 08:04:07 PM 49.0667 -116.6167 63° Northeast 140 161 12,000  Level Vancouver Center
Thu 08:04:43 PM 49.0814 -116.6797 290° West 147 169 12,000  Level Seattle Center
Thu 08:07:07 PM 49.1000 -116.7833 285° West 150 173 12,000  Level Vancouver Center
Thu 08:08:07 PM 49.1167 -116.8333 297° West 150 173 12,000 50 Level Vancouver Center
Thu 08:09:07 PM 49.1500 -116.9000 307° West 150 173 12,100 50 Climbing Vancouver Center
Thu 08:10:07 PM 49.1667 -116.9500 297° West 160 184 12,100  Level Vancouver Center
Thu 08:11:07 PM 49.1833 -117.0000 297° West 140 161 12,100  Level Vancouver Center
Thu 08:12:07 PM 49.2000 -117.0500 297° West 130 150 12,100  Level Vancouver Center
Thu 08:13:07 PM 49.2333 -117.1167 307° West 150 173 12,100  Level Vancouver Center
Thu 08:14:07 PM 49.2500 -117.1667 297° West 150 173 12,100  Level Vancouver Center
Thu 08:17:19 PM 49.3000 -117.3500 293° West 140 161 12,100  Level Vancouver Center
Thu 08:18:19 PM 49.3333 -117.4167 308° West 150 173 12,100 50 Level Vancouver Center
Thu 08:19:19 PM 49.3333 -117.4667 270° West 150 173 12,200 50 Climbing Vancouver Center
Thu 08:20:19 PM 49.3500 -117.5167 297° West 150 173 12,200 -50 Level Vancouver Center
Thu 08:21:19 PM 49.3667 -117.5667 297° West 140 161 12,100  Descending Vancouver Center
Thu 08:22:19 PM 49.3833 -117.6333 291° West 150 173 12,200  Climbing Vancouver Center
Thu 08:23:19 PM 49.4000 -117.6833 297° West 150 173 12,100  Descending Vancouver Center
Thu 08:24:19 PM 49.4333 -117.7333 316° Northwest 160 184 12,200 -50 Climbing Vancouver Center
Thu 08:25:19 PM 49.4500 -117.8167 287° West 160 184 12,000 -100 Descending Vancouver Center
Thu 08:26:19 PM 49.4667 -117.8667 297° West 150 173 12,000 50 Level Vancouver Center
Thu 08:27:19 PM 49.4833 -117.9167 297° West 150 173 12,100 50 Climbing Vancouver Center
Thu 08:28:19 PM 49.5000 -117.9833 291° West 140 161 12,100  Level Vancouver Center
Thu 08:29:19 PM 49.5333 -118.0333 316° Northwest 150 173 12,100 100 Level Vancouver Center
Thu 08:30:19 PM 49.5500 -118.0833 297° West 150 173 12,300  Climbing Vancouver Center
Thu 08:31:19 PM 49.5667 -118.1333 297° West 150 173 12,100 -100 Descending Vancouver Center
Thu 08:32:19 PM 49.5833 -118.2000 291° West 150 173 12,100  Level Vancouver Center
Thu 08:33:19 PM 49.6000 -118.2500 297° West 150 173 12,100  Level Vancouver Center
Thu 08:34:19 PM 49.6000 -118.3167 270° West 150 173 12,100  Level Vancouver Center
Thu 08:35:19 PM 49.6333 -118.3833 308° West 150 173 12,100  Level Vancouver Center
Thu 08:36:19 PM 49.6500 -118.4333 297° West 150 173 12,100  Level Vancouver Center
Thu 08:37:19 PM 49.6667 -118.4833 297° West 160 184 12,100 -300 Level Vancouver Center
Thu 08:38:19 PM 49.6833 -118.5500 291° West 160 184 11,500 -700 Descending Vancouver Center
Thu 08:39:19 PM 49.7000 -118.6000 297° West 170 196 10,700 -700 Descending Vancouver Center
Thu 08:40:19 PM 49.7333 -118.6833 302° West 170 196 10,100 -300 Descending Vancouver Center
Thu 08:41:19 PM 49.7667 -118.7500 308° West 170 196 10,100 50 Level Vancouver Center
Thu 08:42:19 PM 49.7833 -118.8000 297° West 160 184 10,200  Climbing Vancouver Center
Thu 08:43:19 PM 49.8000 -118.8833 287° West 160 184 10,100 -50 Descending Vancouver Center
Thu 08:44:19 PM 49.8000 -118.9333 270° West 160 184 10,100  Level Vancouver Center
Thu 08:45:19 PM 49.8000 -119.0167 270° West 150 173 10,100  Level Vancouver Center
Thu 08:46:19 PM 49.8000 -119.0667 270° West 150 173 10,100 -300 Level Vancouver Center
Thu 08:47:19 PM 49.8167 -119.1167 297° West 150 173 9,500 -1,150 Descending Vancouver Center
Thu 08:48:19 PM 49.8167 -119.2000 270° West 180 207 7,800 -1,650 Descending Vancouver Center
Thu 08:49:19 PM 49.8167 -119.3000 270° West 180 207 6,200 -1,650 Descending Vancouver Center
Thu 08:50:19 PM 49.8333 -119.3500 297° West 180 207 4,500 -1,700 Descending Vancouver Center

Login

Don't have an account? Register now (free) for customized features, flight alerts, and more!